sensor_id;sensor_type;location;lat;lon;timestamp;P1;durP1;ratioP1;P2;durP2;ratioP2
29026;SDS011;16120;48.608;9.092;2024-02-26T00:02:41;116.80;;;9.47;;
29026;SDS011;16120;48.608;9.092;2024-02-26T00:06:38;116.18;;;9.75;;
29026;SDS011;16120;48.608;9.092;2024-02-26T00:10:33;116.40;;;9.40;;
29026;SDS011;16120;48.608;9.092;2024-02-26T00:14:28;116.27;;;9.60;;
29026;SDS011;16120;48.608;9.092;2024-02-26T00:18:23;115.70;;;9.13;;
29026;SDS011;16120;48.608;9.092;2024-02-26T00:22:20;116.20;;;9.60;;
29026;SDS011;16120;48.608;9.092;2024-02-26T00:26:15;116.17;;;9.47;;
29026;SDS011;16120;48.608;9.092;2024-02-26T00:30:10;116.00;;;8.90;;
29026;SDS011;16120;48.608;9.092;2024-02-26T00:34:05;116.00;;;9.23;;
29026;SDS011;16120;48.608;9.092;2024-02-26T00:38:02;116.07;;;9.20;;
29026;SDS011;16120;48.608;9.092;2024-02-26T00:41:57;116.07;;;9.50;;
29026;SDS011;16120;48.608;9.092;2024-02-26T00:45:52;115.90;;;9.10;;
29026;SDS011;16120;48.608;9.092;2024-02-26T00:49:47;115.50;;;8.97;;
29026;SDS011;16120;48.608;9.092;2024-02-26T00:53:44;116.17;;;9.97;;
29026;SDS011;16120;48.608;9.092;2024-02-26T00:57:39;115.37;;;9.23;;
29026;SDS011;16120;48.608;9.092;2024-02-26T01:01:34;116.07;;;9.20;;
29026;SDS011;16120;48.608;9.092;2024-02-26T01:05:30;115.80;;;9.20;;
29026;SDS011;16120;48.608;9.092;2024-02-26T01:09:26;115.90;;;10.10;;
29026;SDS011;16120;48.608;9.092;2024-02-26T01:13:21;116.07;;;9.47;;
29026;SDS011;16120;48.608;9.092;2024-02-26T01:17:16;116.10;;;9.17;;
29026;SDS011;16120;48.608;9.092;2024-02-26T01:21:12;116.07;;;9.47;;
29026;SDS011;16120;48.608;9.092;2024-02-26T01:25:08;116.10;;;9.63;;
29026;SDS011;16120;48.608;9.092;2024-02-26T01:29:04;115.70;;;8.97;;
29026;SDS011;16120;48.608;9.092;2024-02-26T01:32:59;116.28;;;9.70;;
29026;SDS011;16120;48.608;9.092;2024-02-26T01:36:54;115.97;;;9.40;;
29026;SDS011;16120;48.608;9.092;2024-02-26T01:40:50;116.87;;;9.10;;
29026;SDS011;16120;48.608;9.092;2024-02-26T01:44:46;115.50;;;9.30;;
29026;SDS011;16120;48.608;9.092;2024-02-26T01:48:41;116.17;;;9.80;;
29026;SDS011;16120;48.608;9.092;2024-02-26T01:52:36;116.00;;;9.50;;
29026;SDS011;16120;48.608;9.092;2024-02-26T01:56:33;115.77;;;9.40;;
29026;SDS011;16120;48.608;9.092;2024-02-26T02:00:28;116.07;;;9.50;;
29026;SDS011;16120;48.608;9.092;2024-02-26T02:04:24;115.30;;;9.33;;
29026;SDS011;16120;48.608;9.092;2024-02-26T02:08:19;115.97;;;9.20;;
29026;SDS011;16120;48.608;9.092;2024-02-26T02:12:16;115.77;;;9.40;;
29026;SDS011;16120;48.608;9.092;2024-02-26T02:16:11;115.87;;;9.70;;
29026;SDS011;16120;48.608;9.092;2024-02-26T02:20:07;116.03;;;9.97;;
29026;SDS011;16120;48.608;9.092;2024-02-26T02:24:04;115.30;;;9.23;;
29026;SDS011;16120;48.608;9.092;2024-02-26T02:27:59;114.73;;;9.00;;
29026;SDS011;16120;48.608;9.092;2024-02-26T02:31:55;114.97;;;9.27;;
29026;SDS011;16120;48.608;9.092;2024-02-26T02:35:51;115.27;;;9.93;;
29026;SDS011;16120;48.608;9.092;2024-02-26T02:39:48;115.00;;;9.17;;
29026;SDS011;16120;48.608;9.092;2024-02-26T02:43:43;115.87;;;9.67;;
29026;SDS011;16120;48.608;9.092;2024-02-26T02:47:38;115.67;;;9.03;;
29026;SDS011;16120;48.608;9.092;2024-02-26T02:51:33;115.30;;;9.10;;
29026;SDS011;16120;48.608;9.092;2024-02-26T02:55:30;114.93;;;8.97;;
29026;SDS011;16120;48.608;9.092;2024-02-26T02:59:25;115.07;;;9.30;;
29026;SDS011;16120;48.608;9.092;2024-02-26T03:03:20;114.80;;;8.63;;
29026;SDS011;16120;48.608;9.092;2024-02-26T03:07:15;114.80;;;9.50;;
29026;SDS011;16120;48.608;9.092;2024-02-26T03:11:14;114.77;;;9.10;;
29026;SDS011;16120;48.608;9.092;2024-02-26T03:15:09;114.73;;;9.07;;
29026;SDS011;16120;48.608;9.092;2024-02-26T03:19:04;115.00;;;9.73;;
29026;SDS011;16120;48.608;9.092;2024-02-26T03:22:59;114.53;;;8.97;;
29026;SDS011;16120;48.608;9.092;2024-02-26T03:26:56;114.82;;;9.00;;
29026;SDS011;16120;48.608;9.092;2024-02-26T03:30:51;114.50;;;8.90;;
29026;SDS011;16120;48.608;9.092;2024-02-26T03:34:46;114.07;;;8.80;;
29026;SDS011;16120;48.608;9.092;2024-02-26T03:38:42;115.03;;;9.20;;
29026;SDS011;16120;48.608;9.092;2024-02-26T03:42:38;114.10;;;9.03;;
29026;SDS011;16120;48.608;9.092;2024-02-26T03:46:34;113.90;;;9.20;;
29026;SDS011;16120;48.608;9.092;2024-02-26T03:50:29;114.50;;;8.80;;
29026;SDS011;16120;48.608;9.092;2024-02-26T03:54:24;114.07;;;8.70;;
29026;SDS011;16120;48.608;9.092;2024-02-26T03:58:20;114.00;;;8.57;;
29026;SDS011;16120;48.608;9.092;2024-02-26T04:02:16;114.00;;;9.23;;
29026;SDS011;16120;48.608;9.092;2024-02-26T04:06:11;114.57;;;8.93;;
29026;SDS011;16120;48.608;9.092;2024-02-26T04:10:08;115.00;;;9.67;;
29026;SDS011;16120;48.608;9.092;2024-02-26T04:14:05;115.20;;;9.80;;
29026;SDS011;16120;48.608;9.092;2024-02-26T04:18:00;114.27;;;8.83;;
29026;SDS011;16120;48.608;9.092;2024-02-26T04:21:55;114.77;;;8.90;;
29026;SDS011;16120;48.608;9.092;2024-02-26T04:25:50;114.27;;;8.90;;
29026;SDS011;16120;48.608;9.092;2024-02-26T04:29:47;114.37;;;8.90;;
29026;SDS011;16120;48.608;9.092;2024-02-26T04:33:42;114.40;;;8.77;;
29026;SDS011;16120;48.608;9.092;2024-02-26T04:37:37;115.37;;;9.50;;
29026;SDS011;16120;48.608;9.092;2024-02-26T04:41:33;115.10;;;9.00;;
29026;SDS011;16120;48.608;9.092;2024-02-26T04:45:29;115.17;;;9.70;;
29026;SDS011;16120;48.608;9.092;2024-02-26T04:49:24;115.27;;;9.10;;
29026;SDS011;16120;48.608;9.092;2024-02-26T04:53:19;113.60;;;8.70;;
29026;SDS011;16120;48.608;9.092;2024-02-26T04:57:15;114.87;;;8.80;;
29026;SDS011;16120;48.608;9.092;2024-02-26T05:01:11;115.20;;;9.17;;
29026;SDS011;16120;48.608;9.092;2024-02-26T05:05:07;114.80;;;9.50;;
29026;SDS011;16120;48.608;9.092;2024-02-26T05:09:02;114.67;;;9.03;;
29026;SDS011;16120;48.608;9.092;2024-02-26T05:12:57;114.38;;;9.20;;
29026;SDS011;16120;48.608;9.092;2024-02-26T05:16:54;113.97;;;9.10;;
29026;SDS011;16120;48.608;9.092;2024-02-26T05:20:49;113.97;;;8.93;;
29026;SDS011;16120;48.608;9.092;2024-02-26T05:24:44;114.47;;;9.00;;
29026;SDS011;16120;48.608;9.092;2024-02-26T05:28:39;114.55;;;9.30;;
29026;SDS011;16120;48.608;9.092;2024-02-26T05:32:36;112.90;;;9.03;;
29026;SDS011;16120;48.608;9.092;2024-02-26T05:36:31;115.07;;;9.80;;
29026;SDS011;16120;48.608;9.092;2024-02-26T05:40:26;114.80;;;8.90;;
29026;SDS011;16120;48.608;9.092;2024-02-26T05:44:22;114.17;;;9.40;;
29026;SDS011;16120;48.608;9.092;2024-02-26T05:48:18;115.00;;;9.87;;
29026;SDS011;16120;48.608;9.092;2024-02-26T05:52:14;115.23;;;9.57;;
29026;SDS011;16120;48.608;9.092;2024-02-26T05:56:09;114.37;;;9.40;;
29026;SDS011;16120;48.608;9.092;2024-02-26T06:00:05;114.80;;;8.95;;
29026;SDS011;16120;48.608;9.092;2024-02-26T06:04:02;113.97;;;9.13;;
29026;SDS011;16120;48.608;9.092;2024-02-26T06:07:57;114.83;;;9.43;;
29026;SDS011;16120;48.608;9.092;2024-02-26T06:11:52;115.07;;;8.77;;
29026;SDS011;16120;48.608;9.092;2024-02-26T06:15:47;115.37;;;8.67;;
29026;SDS011;16120;48.608;9.092;2024-02-26T06:19:44;114.78;;;8.98;;
29026;SDS011;16120;48.608;9.092;2024-02-26T06:23:39;114.40;;;9.43;;
29026;SDS011;16120;48.608;9.092;2024-02-26T06:27:35;115.20;;;8.87;;
29026;SDS011;16120;48.608;9.092;2024-02-26T06:31:30;114.97;;;9.50;;
29026;SDS011;16120;48.608;9.092;2024-02-26T06:35:26;114.77;;;8.93;;
29026;SDS011;16120;48.608;9.092;2024-02-26T06:39:22;115.00;;;9.07;;
29026;SDS011;16120;48.608;9.092;2024-02-26T06:43:17;115.30;;;10.10;;
29026;SDS011;16120;48.608;9.092;2024-02-26T06:47:12;115.57;;;9.33;;
29026;SDS011;16120;48.608;9.092;2024-02-26T06:51:08;114.80;;;8.93;;
29026;SDS011;16120;48.608;9.092;2024-02-26T06:55:04;115.27;;;9.60;;
29026;SDS011;16120;48.608;9.092;2024-02-26T06:58:59;115.47;;;9.40;;
29026;SDS011;16120;48.608;9.092;2024-02-26T07:02:54;114.17;;;9.00;;
29026;SDS011;16120;48.608;9.092;2024-02-26T07:06:51;114.73;;;9.43;;
29026;SDS011;16120;48.608;9.092;2024-02-26T07:10:46;114.80;;;9.10;;
29026;SDS011;16120;48.608;9.092;2024-02-26T07:14:41;114.87;;;9.30;;
29026;SDS011;16120;48.608;9.092;2024-02-26T07:18:37;115.32;;;9.75;;
29026;SDS011;16120;48.608;9.092;2024-02-26T07:22:33;115.60;;;10.37;;
29026;SDS011;16120;48.608;9.092;2024-02-26T07:26:28;115.20;;;9.67;;
29026;SDS011;16120;48.608;9.092;2024-02-26T07:30:24;115.57;;;9.90;;
29026;SDS011;16120;48.608;9.092;2024-02-26T07:34:19;114.70;;;9.50;;
29026;SDS011;16120;48.608;9.092;2024-02-26T07:38:15;113.70;;;9.20;;
29026;SDS011;16120;48.608;9.092;2024-02-26T07:42:10;113.87;;;8.87;;
29026;SDS011;16120;48.608;9.092;2024-02-26T07:46:06;114.17;;;9.00;;
29026;SDS011;16120;48.608;9.092;2024-02-26T07:50:01;114.40;;;9.00;;
29026;SDS011;16120;48.608;9.092;2024-02-26T07:53:57;113.95;;;8.55;;
29026;SDS011;16120;48.608;9.092;2024-02-26T07:57:53;112.97;;;8.80;;
29026;SDS011;16120;48.608;9.092;2024-02-26T08:01:49;113.67;;;8.63;;
29026;SDS011;16120;48.608;9.092;2024-02-26T08:05:44;113.67;;;9.67;;
29026;SDS011;16120;48.608;9.092;2024-02-26T08:09:41;115.20;;;8.60;;
29026;SDS011;16120;48.608;9.092;2024-02-26T08:13:36;113.67;;;8.67;;
29026;SDS011;16120;48.608;9.092;2024-02-26T08:17:31;112.27;;;8.27;;
29026;SDS011;16120;48.608;9.092;2024-02-26T08:21:26;112.97;;;8.70;;
29026;SDS011;16120;48.608;9.092;2024-02-26T08:25:23;113.10;;;8.77;;
29026;SDS011;16120;48.608;9.092;2024-02-26T08:29:18;112.97;;;9.17;;
29026;SDS011;16120;48.608;9.092;2024-02-26T08:33:13;112.30;;;8.43;;
29026;SDS011;16120;48.608;9.092;2024-02-26T08:37:08;112.80;;;8.23;;
29026;SDS011;16120;48.608;9.092;2024-02-26T08:41:05;112.27;;;8.37;;
29026;SDS011;16120;48.608;9.092;2024-02-26T08:45:01;112.50;;;8.30;;
29026;SDS011;16120;48.608;9.092;2024-02-26T08:48:56;112.67;;;8.17;;
29026;SDS011;16120;48.608;9.092;2024-02-26T08:52:51;112.50;;;8.17;;
29026;SDS011;16120;48.608;9.092;2024-02-26T08:56:48;111.70;;;8.10;;
29026;SDS011;16120;48.608;9.092;2024-02-26T09:00:43;111.40;;;8.03;;
29026;SDS011;16120;48.608;9.092;2024-02-26T09:04:38;110.50;;;7.90;;
29026;SDS011;16120;48.608;9.092;2024-02-26T09:08:33;111.20;;;7.93;;
29026;SDS011;16120;48.608;9.092;2024-02-26T09:12:30;111.23;;;8.13;;
29026;SDS011;16120;48.608;9.092;2024-02-26T09:16:25;111.40;;;8.10;;
29026;SDS011;16120;48.608;9.092;2024-02-26T09:20:20;111.07;;;8.07;;
29026;SDS011;16120;48.608;9.092;2024-02-26T09:24:16;110.90;;;8.10;;
29026;SDS011;16120;48.608;9.092;2024-02-26T09:28:12;110.70;;;8.30;;
29026;SDS011;16120;48.608;9.092;2024-02-26T09:32:07;110.77;;;8.23;;
29026;SDS011;16120;48.608;9.092;2024-02-26T09:36:03;110.30;;;8.10;;
29026;SDS011;16120;48.608;9.092;2024-02-26T09:39:58;110.00;;;7.83;;
29026;SDS011;16120;48.608;9.092;2024-02-26T09:43:56;109.90;;;8.60;;
29026;SDS011;16120;48.608;9.092;2024-02-26T09:47:51;109.20;;;7.60;;
29026;SDS011;16120;48.608;9.092;2024-02-26T09:51:47;109.27;;;8.00;;
29026;SDS011;16120;48.608;9.092;2024-02-26T09:55:45;108.97;;;7.73;;
29026;SDS011;16120;48.608;9.092;2024-02-26T09:59:41;108.30;;;7.80;;
29026;SDS011;16120;48.608;9.092;2024-02-26T10:03:38;108.03;;;7.53;;
29026;SDS011;16120;48.608;9.092;2024-02-26T10:07:33;107.80;;;7.27;;
29026;SDS011;16120;48.608;9.092;2024-02-26T10:11:29;108.10;;;7.63;;
29026;SDS011;16120;48.608;9.092;2024-02-26T10:15:26;107.77;;;7.50;;
29026;SDS011;16120;48.608;9.092;2024-02-26T10:19:27;107.00;;;7.13;;
29026;SDS011;16120;48.608;9.092;2024-02-26T10:23:23;107.27;;;7.27;;
29026;SDS011;16120;48.608;9.092;2024-02-26T10:27:18;107.17;;;7.40;;
29026;SDS011;16120;48.608;9.092;2024-02-26T10:31:15;107.27;;;8.23;;
29026;SDS011;16120;48.608;9.092;2024-02-26T10:35:10;106.97;;;7.83;;
29026;SDS011;16120;48.608;9.092;2024-02-26T10:39:05;106.97;;;7.67;;
29026;SDS011;16120;48.608;9.092;2024-02-26T10:43:00;107.03;;;7.87;;
29026;SDS011;16120;48.608;9.092;2024-02-26T10:46:57;107.20;;;7.93;;
29026;SDS011;16120;48.608;9.092;2024-02-26T10:50:52;107.27;;;7.83;;
29026;SDS011;16120;48.608;9.092;2024-02-26T10:54:47;107.47;;;8.40;;
29026;SDS011;16120;48.608;9.092;2024-02-26T10:58:43;107.07;;;7.90;;
29026;SDS011;16120;48.608;9.092;2024-02-26T11:02:41;106.93;;;7.87;;
29026;SDS011;16120;48.608;9.092;2024-02-26T11:06:38;107.13;;;7.90;;
29026;SDS011;16120;48.608;9.092;2024-02-26T11:10:34;106.77;;;8.17;;
29026;SDS011;16120;48.608;9.092;2024-02-26T11:14:30;106.77;;;8.30;;
29026;SDS011;16120;48.608;9.092;2024-02-26T11:18:27;106.67;;;7.97;;
29026;SDS011;16120;48.608;9.092;2024-02-26T11:22:23;106.47;;;7.37;;
29026;SDS011;16120;48.608;9.092;2024-02-26T11:26:18;106.40;;;7.63;;
29026;SDS011;16120;48.608;9.092;2024-02-26T11:30:14;105.77;;;7.70;;
29026;SDS011;16120;48.608;9.092;2024-02-26T11:34:11;106.10;;;7.67;;
29026;SDS011;16120;48.608;9.092;2024-02-26T11:38:07;106.17;;;7.77;;
29026;SDS011;16120;48.608;9.092;2024-02-26T11:42:04;106.47;;;8.40;;
29026;SDS011;16120;48.608;9.092;2024-02-26T11:45:59;106.10;;;7.83;;
29026;SDS011;16120;48.608;9.092;2024-02-26T11:49:56;105.07;;;7.87;;
29026;SDS011;16120;48.608;9.092;2024-02-26T11:53:51;105.60;;;8.17;;
29026;SDS011;16120;48.608;9.092;2024-02-26T11:57:46;105.20;;;8.00;;
29026;SDS011;16120;48.608;9.092;2024-02-26T12:01:42;106.50;;;8.90;;
29026;SDS011;16120;48.608;9.092;2024-02-26T12:05:39;106.20;;;7.83;;
29026;SDS011;16120;48.608;9.092;2024-02-26T12:09:35;105.20;;;8.10;;
29026;SDS011;16120;48.608;9.092;2024-02-26T12:13:31;105.43;;;7.73;;
29026;SDS011;16120;48.608;9.092;2024-02-26T12:17:26;104.77;;;8.07;;
29026;SDS011;16120;48.608;9.092;2024-02-26T12:21:23;104.40;;;7.70;;
29026;SDS011;16120;48.608;9.092;2024-02-26T12:25:19;103.93;;;7.90;;
29026;SDS011;16120;48.608;9.092;2024-02-26T12:29:14;103.77;;;7.53;;
29026;SDS011;16120;48.608;9.092;2024-02-26T12:33:10;104.47;;;8.17;;
29026;SDS011;16120;48.608;9.092;2024-02-26T12:37:06;102.93;;;7.73;;
29026;SDS011;16120;48.608;9.092;2024-02-26T12:41:02;104.20;;;7.63;;
29026;SDS011;16120;48.608;9.092;2024-02-26T12:44:57;104.47;;;7.50;;
29026;SDS011;16120;48.608;9.092;2024-02-26T12:48:54;103.57;;;7.00;;
29026;SDS011;16120;48.608;9.092;2024-02-26T12:52:51;104.30;;;7.50;;
29026;SDS011;16120;48.608;9.092;2024-02-26T12:56:46;105.10;;;8.67;;
29026;SDS011;16120;48.608;9.092;2024-02-26T13:00:42;103.97;;;7.50;;
29026;SDS011;16120;48.608;9.092;2024-02-26T13:04:38;103.47;;;7.20;;
29026;SDS011;16120;48.608;9.092;2024-02-26T13:08:35;105.23;;;11.43;;
29026;SDS011;16120;48.608;9.092;2024-02-26T13:12:30;103.97;;;7.67;;
29026;SDS011;16120;48.608;9.092;2024-02-26T13:16:25;104.70;;;8.70;;
29026;SDS011;16120;48.608;9.092;2024-02-26T13:20:26;105.77;;;10.47;;
29026;SDS011;16120;48.608;9.092;2024-02-26T13:24:23;104.10;;;8.10;;
29026;SDS011;16120;48.608;9.092;2024-02-26T13:28:18;104.20;;;8.10;;
29026;SDS011;16120;48.608;9.092;2024-02-26T13:32:13;104.00;;;9.50;;
29026;SDS011;16120;48.608;9.092;2024-02-26T13:36:08;104.73;;;8.60;;
29026;SDS011;16120;48.608;9.092;2024-02-26T13:40:06;104.70;;;7.87;;
29026;SDS011;16120;48.608;9.092;2024-02-26T13:44:01;106.07;;;11.03;;
29026;SDS011;16120;48.608;9.092;2024-02-26T13:47:59;103.97;;;7.47;;
29026;SDS011;16120;48.608;9.092;2024-02-26T13:51:56;105.10;;;8.90;;
29026;SDS011;16120;48.608;9.092;2024-02-26T13:55:53;105.40;;;12.20;;
29026;SDS011;16120;48.608;9.092;2024-02-26T13:59:48;104.07;;;7.33;;
29026;SDS011;16120;48.608;9.092;2024-02-26T14:03:44;106.17;;;11.57;;
29026;SDS011;16120;48.608;9.092;2024-02-26T14:07:39;106.97;;;12.80;;
29026;SDS011;16120;48.608;9.092;2024-02-26T14:11:35;104.53;;;8.88;;
29026;SDS011;16120;48.608;9.092;2024-02-26T14:15:31;103.47;;;7.87;;
29026;SDS011;16120;48.608;9.092;2024-02-26T14:19:26;102.83;;;8.17;;
29026;SDS011;16120;48.608;9.092;2024-02-26T14:23:21;119.33;;;27.00;;
29026;SDS011;16120;48.608;9.092;2024-02-26T14:27:18;104.47;;;9.27;;
29026;SDS011;16120;48.608;9.092;2024-02-26T14:31:16;105.27;;;8.50;;
29026;SDS011;16120;48.608;9.092;2024-02-26T14:35:11;103.70;;;7.27;;
29026;SDS011;16120;48.608;9.092;2024-02-26T14:39:07;111.30;;;19.50;;
29026;SDS011;16120;48.608;9.092;2024-02-26T14:43:03;104.10;;;7.90;;
29026;SDS011;16120;48.608;9.092;2024-02-26T14:46:59;104.40;;;7.50;;
29026;SDS011;16120;48.608;9.092;2024-02-26T14:50:54;127.30;;;38.27;;
29026;SDS011;16120;48.608;9.092;2024-02-26T14:54:49;105.57;;;12.57;;
29026;SDS011;16120;48.608;9.092;2024-02-26T14:58:45;105.27;;;8.60;;
29026;SDS011;16120;48.608;9.092;2024-02-26T15:02:41;104.77;;;7.57;;
29026;SDS011;16120;48.608;9.092;2024-02-26T15:06:37;112.03;;;17.67;;
29026;SDS011;16120;48.608;9.092;2024-02-26T15:10:32;104.57;;;8.03;;
29026;SDS011;16120;48.608;9.092;2024-02-26T15:14:29;105.17;;;7.90;;
29026;SDS011;16120;48.608;9.092;2024-02-26T15:18:24;105.07;;;7.73;;
29026;SDS011;16120;48.608;9.092;2024-02-26T15:22:19;106.00;;;8.27;;
29026;SDS011;16120;48.608;9.092;2024-02-26T15:26:14;107.57;;;12.10;;
29026;SDS011;16120;48.608;9.092;2024-02-26T15:30:11;106.10;;;10.43;;
29026;SDS011;16120;48.608;9.092;2024-02-26T15:34:07;105.97;;;9.10;;
29026;SDS011;16120;48.608;9.092;2024-02-26T15:38:02;106.07;;;8.33;;
29026;SDS011;16120;48.608;9.092;2024-02-26T15:41:57;104.70;;;7.80;;
29026;SDS011;16120;48.608;9.092;2024-02-26T15:45:54;105.77;;;7.53;;
29026;SDS011;16120;48.608;9.092;2024-02-26T15:49:49;105.67;;;8.20;;
29026;SDS011;16120;48.608;9.092;2024-02-26T15:53:44;107.00;;;9.45;;
29026;SDS011;16120;48.608;9.092;2024-02-26T15:57:40;105.97;;;7.90;;
29026;SDS011;16120;48.608;9.092;2024-02-26T16:01:37;106.17;;;8.20;;
29026;SDS011;16120;48.608;9.092;2024-02-26T16:05:33;105.47;;;7.67;;
29026;SDS011;16120;48.608;9.092;2024-02-26T16:09:28;104.83;;;7.60;;
29026;SDS011;16120;48.608;9.092;2024-02-26T16:13:23;106.17;;;7.77;;
29026;SDS011;16120;48.608;9.092;2024-02-26T16:17:21;106.10;;;7.90;;
29026;SDS011;16120;48.608;9.092;2024-02-26T16:21:18;105.67;;;8.10;;
29026;SDS011;16120;48.608;9.092;2024-02-26T16:25:13;105.73;;;7.40;;
29026;SDS011;16120;48.608;9.092;2024-02-26T16:29:08;106.43;;;8.70;;
29026;SDS011;16120;48.608;9.092;2024-02-26T16:33:05;106.30;;;7.40;;
29026;SDS011;16120;48.608;9.092;2024-02-26T16:37:00;107.23;;;9.30;;
29026;SDS011;16120;48.608;9.092;2024-02-26T16:40:59;110.03;;;7.57;;
29026;SDS011;16120;48.608;9.092;2024-02-26T16:44:54;104.70;;;7.60;;
29026;SDS011;16120;48.608;9.092;2024-02-26T16:48:50;105.87;;;7.97;;
29026;SDS011;16120;48.608;9.092;2024-02-26T16:52:46;106.57;;;7.93;;
29026;SDS011;16120;48.608;9.092;2024-02-26T16:56:41;106.20;;;7.40;;
29026;SDS011;16120;48.608;9.092;2024-02-26T17:00:36;105.37;;;7.73;;
29026;SDS011;16120;48.608;9.092;2024-02-26T17:04:32;106.17;;;7.33;;
29026;SDS011;16120;48.608;9.092;2024-02-26T17:08:28;106.90;;;7.90;;
29026;SDS011;16120;48.608;9.092;2024-02-26T17:12:23;106.87;;;9.23;;
29026;SDS011;16120;48.608;9.092;2024-02-26T17:16:18;107.33;;;8.30;;
29026;SDS011;16120;48.608;9.092;2024-02-26T17:20:15;107.70;;;10.43;;
29026;SDS011;16120;48.608;9.092;2024-02-26T17:24:10;107.77;;;8.17;;
29026;SDS011;16120;48.608;9.092;2024-02-26T17:28:05;107.13;;;7.33;;
29026;SDS011;16120;48.608;9.092;2024-02-26T17:32:00;107.70;;;8.40;;
29026;SDS011;16120;48.608;9.092;2024-02-26T17:35:57;107.73;;;7.80;;
29026;SDS011;16120;48.608;9.092;2024-02-26T17:39:52;107.97;;;8.70;;
29026;SDS011;16120;48.608;9.092;2024-02-26T17:43:47;107.27;;;7.93;;
29026;SDS011;16120;48.608;9.092;2024-02-26T17:47:42;107.97;;;8.00;;
29026;SDS011;16120;48.608;9.092;2024-02-26T17:51:39;107.27;;;8.00;;
29026;SDS011;16120;48.608;9.092;2024-02-26T17:55:35;107.57;;;7.57;;
29026;SDS011;16120;48.608;9.092;2024-02-26T17:59:30;106.80;;;7.57;;
29026;SDS011;16120;48.608;9.092;2024-02-26T18:03:25;108.47;;;8.63;;
29026;SDS011;16120;48.608;9.092;2024-02-26T18:07:21;107.70;;;7.67;;
29026;SDS011;16120;48.608;9.092;2024-02-26T18:11:17;107.67;;;7.43;;
29026;SDS011;16120;48.608;9.092;2024-02-26T18:15:12;108.17;;;7.87;;
29026;SDS011;16120;48.608;9.092;2024-02-26T18:19:07;107.87;;;7.70;;
29026;SDS011;16120;48.608;9.092;2024-02-26T18:23:04;107.40;;;8.17;;
29026;SDS011;16120;48.608;9.092;2024-02-26T18:26:59;108.57;;;9.40;;
29026;SDS011;16120;48.608;9.092;2024-02-26T18:30:54;108.10;;;7.90;;
29026;SDS011;16120;48.608;9.092;2024-02-26T18:34:49;107.60;;;8.40;;
29026;SDS011;16120;48.608;9.092;2024-02-26T18:38:46;107.60;;;8.27;;
29026;SDS011;16120;48.608;9.092;2024-02-26T18:42:41;107.60;;;7.50;;
29026;SDS011;16120;48.608;9.092;2024-02-26T18:46:41;107.00;;;8.17;;
29026;SDS011;16120;48.608;9.092;2024-02-26T18:50:36;108.27;;;7.80;;
29026;SDS011;16120;48.608;9.092;2024-02-26T18:54:33;107.60;;;8.10;;
29026;SDS011;16120;48.608;9.092;2024-02-26T18:58:28;108.87;;;8.03;;
29026;SDS011;16120;48.608;9.092;2024-02-26T19:02:23;108.20;;;8.17;;
29026;SDS011;16120;48.608;9.092;2024-02-26T19:06:18;108.10;;;7.87;;
29026;SDS011;16120;48.608;9.092;2024-02-26T19:10:15;108.07;;;7.93;;
29026;SDS011;16120;48.608;9.092;2024-02-26T19:14:10;108.20;;;8.27;;
29026;SDS011;16120;48.608;9.092;2024-02-26T19:18:05;108.27;;;7.93;;
29026;SDS011;16120;48.608;9.092;2024-02-26T19:22:01;108.37;;;8.03;;
29026;SDS011;16120;48.608;9.092;2024-02-26T19:25:57;108.40;;;8.10;;
29026;SDS011;16120;48.608;9.092;2024-02-26T19:29:52;108.40;;;7.77;;
29026;SDS011;16120;48.608;9.092;2024-02-26T19:33:48;108.47;;;7.73;;
29026;SDS011;16120;48.608;9.092;2024-02-26T19:37:43;108.67;;;8.07;;
29026;SDS011;16120;48.608;9.092;2024-02-26T19:41:39;108.67;;;8.13;;
29026;SDS011;16120;48.608;9.092;2024-02-26T19:45:34;108.70;;;8.07;;
29026;SDS011;16120;48.608;9.092;2024-02-26T19:49:30;108.57;;;7.90;;
29026;SDS011;16120;48.608;9.092;2024-02-26T19:53:25;108.63;;;7.97;;
29026;SDS011;16120;48.608;9.092;2024-02-26T19:57:21;108.20;;;7.78;;
29026;SDS011;16120;48.608;9.092;2024-02-26T20:01:17;108.83;;;7.73;;
29026;SDS011;16120;48.608;9.092;2024-02-26T20:05:12;109.53;;;7.80;;
29026;SDS011;16120;48.608;9.092;2024-02-26T20:09:07;108.95;;;8.13;;
29026;SDS011;16120;48.608;9.092;2024-02-26T20:13:04;108.70;;;7.90;;
29026;SDS011;16120;48.608;9.092;2024-02-26T20:16:59;108.70;;;7.97;;
29026;SDS011;16120;48.608;9.092;2024-02-26T20:20:54;108.60;;;8.00;;
29026;SDS011;16120;48.608;9.092;2024-02-26T20:24:49;108.87;;;7.73;;
29026;SDS011;16120;48.608;9.092;2024-02-26T20:28:46;108.70;;;7.67;;
29026;SDS011;16120;48.608;9.092;2024-02-26T20:32:41;108.87;;;8.00;;
29026;SDS011;16120;48.608;9.092;2024-02-26T20:36:37;109.43;;;8.17;;
29026;SDS011;16120;48.608;9.092;2024-02-26T20:40:32;108.90;;;7.80;;
29026;SDS011;16120;48.608;9.092;2024-02-26T20:44:29;108.73;;;7.67;;
29026;SDS011;16120;48.608;9.092;2024-02-26T20:48:24;109.07;;;7.70;;
29026;SDS011;16120;48.608;9.092;2024-02-26T20:52:19;109.37;;;7.90;;
29026;SDS011;16120;48.608;9.092;2024-02-26T20:56:14;109.07;;;8.00;;
29026;SDS011;16120;48.608;9.092;2024-02-26T21:00:11;109.57;;;8.20;;
29026;SDS011;16120;48.608;9.092;2024-02-26T21:04:06;109.40;;;8.07;;
29026;SDS011;16120;48.608;9.092;2024-02-26T21:08:02;109.60;;;8.17;;
29026;SDS011;16120;48.608;9.092;2024-02-26T21:11:57;109.67;;;7.90;;
29026;SDS011;16120;48.608;9.092;2024-02-26T21:15:54;110.10;;;8.73;;
29026;SDS011;16120;48.608;9.092;2024-02-26T21:19:49;109.77;;;8.17;;
29026;SDS011;16120;48.608;9.092;2024-02-26T21:23:44;109.87;;;7.90;;
29026;SDS011;16120;48.608;9.092;2024-02-26T21:27:39;109.87;;;8.40;;
29026;SDS011;16120;48.608;9.092;2024-02-26T21:31:36;109.70;;;7.97;;
29026;SDS011;16120;48.608;9.092;2024-02-26T21:35:31;109.67;;;7.73;;
29026;SDS011;16120;48.608;9.092;2024-02-26T21:39:27;109.20;;;7.83;;
29026;SDS011;16120;48.608;9.092;2024-02-26T21:43:23;109.87;;;8.07;;
29026;SDS011;16120;48.608;9.092;2024-02-26T21:47:19;110.20;;;8.30;;
29026;SDS011;16120;48.608;9.092;2024-02-26T21:51:14;109.97;;;8.60;;
29026;SDS011;16120;48.608;9.092;2024-02-26T21:55:10;110.53;;;8.50;;
29026;SDS011;16120;48.608;9.092;2024-02-26T21:59:05;109.57;;;7.73;;
29026;SDS011;16120;48.608;9.092;2024-02-26T22:03:02;110.90;;;8.90;;
29026;SDS011;16120;48.608;9.092;2024-02-26T22:06:57;110.17;;;7.87;;
29026;SDS011;16120;48.608;9.092;2024-02-26T22:10:53;109.67;;;7.83;;
29026;SDS011;16120;48.608;9.092;2024-02-26T22:14:48;109.80;;;7.93;;
29026;SDS011;16120;48.608;9.092;2024-02-26T22:18:44;110.20;;;7.70;;
29026;SDS011;16120;48.608;9.092;2024-02-26T22:22:39;110.23;;;8.40;;
29026;SDS011;16120;48.608;9.092;2024-02-26T22:26:35;110.27;;;7.80;;
29026;SDS011;16120;48.608;9.092;2024-02-26T22:30:30;109.87;;;8.07;;
29026;SDS011;16120;48.608;9.092;2024-02-26T22:34:26;110.07;;;7.87;;
29026;SDS011;16120;48.608;9.092;2024-02-26T22:38:21;110.07;;;8.20;;
29026;SDS011;16120;48.608;9.092;2024-02-26T22:42:17;109.47;;;7.90;;
29026;SDS011;16120;48.608;9.092;2024-02-26T22:46:12;110.10;;;8.40;;
29026;SDS011;16120;48.608;9.092;2024-02-26T22:50:09;109.47;;;8.10;;
29026;SDS011;16120;48.608;9.092;2024-02-26T22:54:04;109.80;;;7.93;;
29026;SDS011;16120;48.608;9.092;2024-02-26T22:57:59;110.03;;;8.10;;